Time;durP1;ratioP1;P1;durP2;ratioP2;P2;SDS_P1;SDS_P2;PMS_P1;PMS_P2;Temp;Humidity;BMP_temperature;BMP_pressure;BME280_temperature;BME280_humidity;BME280_pressure;Samples;Min_cycle;Max_cycle;Signal;HPM_P1;HPM_P2
2022/05/09 00:01:53;;;;;;;4.57;4.28;;;;;;;9.57;100.00;96258.13;5016444;28;20076;-60
2022/05/09 00:04:19;;;;;;;4.43;4.13;;;;;;;9.61;100.00;96245.56;5020146;28;20029;-59
2022/05/09 00:06:45;;;;;;;3.70;3.47;;;;;;;9.61;100.00;96256.06;5019209;28;20049;-60
2022/05/09 00:09:11;;;;;;;4.63;4.22;;;;;;;9.60;100.00;96257.88;5022342;28;20049;-60
2022/05/09 00:11:37;;;;;;;4.32;4.03;;;;;;;9.55;100.00;96252.16;5018629;28;20051;-60
2022/05/09 00:14:02;;;;;;;3.80;3.60;;;;;;;9.49;100.00;96257.88;5020307;28;20056;-59
2022/05/09 00:16:33;;;;;;;3.92;3.72;;;;;;;9.41;100.00;96250.63;5020043;28;20045;-59
2022/05/09 00:19:03;;;;;;;3.83;3.42;;;;;;;9.41;100.00;96249.78;5015673;28;20570;-60
2022/05/09 00:21:35;;;;;;;4.63;3.67;;;;;;;9.38;100.00;96245.59;5020216;28;20033;-59
2022/05/09 00:24:00;;;;;;;5.18;3.40;;;;;;;9.37;100.00;96249.16;5016904;28;20030;-59
2022/05/09 00:26:31;;;;;;;3.95;3.75;;;;;;;9.35;100.00;96253.72;5022550;28;20025;-59
2022/05/09 00:29:02;;;;;;;3.90;3.20;;;;;;;9.31;100.00;96254.91;5016947;28;20025;-60
2022/05/09 00:31:28;;;;;;;4.00;3.58;;;;;;;9.26;100.00;96250.00;5020262;28;20061;-60
2022/05/09 00:33:54;;;;;;;3.47;3.20;;;;;;;9.25;100.00;96250.16;5017300;28;20062;-60
2022/05/09 00:36:19;;;;;;;2.85;2.75;;;;;;;9.28;100.00;96253.38;5019577;28;20029;-59
2022/05/09 00:38:44;;;;;;;3.47;3.17;;;;;;;9.23;100.00;96246.81;5019266;28;20053;-60
2022/05/09 00:41:31;;;;;;;3.45;3.25;;;;;;;9.20;100.00;96247.88;5020771;28;20033;-60
2022/05/09 00:44:02;;;;;;;3.60;3.33;;;;;;;9.16;100.00;96252.50;5016104;28;20072;-60
2022/05/09 00:46:28;;;;;;;3.58;3.38;;;;;;;9.16;100.00;96242.00;5015941;28;20050;-60
2022/05/09 00:49:02;;;;;;;3.83;3.15;;;;;;;9.15;100.00;96245.59;5013532;28;20044;-60
2022/05/09 00:51:29;;;;;;;4.03;3.83;;;;;;;9.09;100.00;96246.06;5020211;28;20448;-59
2022/05/09 00:53:57;;;;;;;3.47;3.28;;;;;;;9.09;100.00;96242.63;5016709;28;20112;-59
2022/05/09 00:56:27;;;;;;;3.72;3.42;;;;;;;9.08;100.00;96241.78;5014266;28;20030;-60
2022/05/09 00:59:00;;;;;;;6.35;3.30;;;;;;;9.07;100.00;96244.53;5017356;28;20084;-60
2022/05/09 01:01:26;;;;;;;3.78;3.58;;;;;;;9.06;100.00;96248.09;5014895;28;20096;-60
2022/05/09 01:04:04;;;;;;;5.63;3.90;;;;;;;9.05;100.00;96242.03;5016738;28;20029;-59
2022/05/09 01:06:29;;;;;;;4.95;3.35;;;;;;;9.03;100.00;96246.56;5024758;28;20030;-59
2022/05/09 01:08:55;;;;;;;5.15;3.97;;;;;;;9.05;100.00;96251.69;5016884;28;20592;-60
2022/05/09 01:11:23;;;;;;;3.58;3.38;;;;;;;9.01;100.00;96241.41;5020732;28;20033;-59
2022/05/09 01:13:53;;;;;;;3.78;3.47;;;;;;;8.99;100.00;96247.75;5018807;28;20379;-59
2022/05/09 01:16:19;;;;;;;3.97;3.65;;;;;;;8.95;100.00;96255.03;5022435;28;20029;-60
2022/05/09 01:18:46;;;;;;;4.00;3.80;;;;;;;8.89;100.00;96252.88;5014522;28;20029;-60
2022/05/09 01:21:36;;;;;;;3.95;3.47;;;;;;;8.86;100.00;96256.56;5017210;28;20029;-60
2022/05/09 01:24:03;;;;;;;3.90;3.63;;;;;;;8.86;100.00;96259.19;5018389;28;20427;-59
2022/05/09 01:26:29;;;;;;;3.33;3.00;;;;;;;8.82;100.00;96255.13;5017258;28;20370;-60
2022/05/09 01:28:59;;;;;;;3.78;3.47;;;;;;;8.79;100.00;96255.38;5014594;28;20036;-59
2022/05/09 01:31:26;;;;;;;4.38;3.97;;;;;;;8.78;100.00;96258.94;5016664;28;20396;-60
2022/05/09 01:33:53;;;;;;;3.72;3.42;;;;;;;8.74;100.00;96260.13;5013472;28;20021;-60
2022/05/09 01:36:27;;;;;;;3.53;3.33;;;;;;;8.73;100.00;96258.44;5016138;28;20091;-60
2022/05/09 01:39:04;;;;;;;5.90;2.95;;;;;;;8.74;100.00;96262.78;5023934;28;20125;-60
2022/05/09 01:41:36;;;;;;;4.05;3.55;;;;;;;8.69;100.00;96262.25;5021343;28;20034;-60
2022/05/09 01:44:02;;;;;;;5.13;4.22;;;;;;;8.64;100.00;96259.16;5020538;28;20551;-59
2022/05/09 01:46:30;;;;;;;3.30;3.10;;;;;;;8.62;100.00;96259.28;5026689;28;20120;-60
2022/05/09 01:51:43;;;;;;;4.43;3.30;;;;;;;8.51;100.00;96267.97;5020240;28;20053;-59
2022/05/09 01:54:10;;;;;;;3.75;3.55;;;;;;;8.48;100.00;96268.13;5022273;28;20025;-60
2022/05/09 01:56:38;;;;;;;3.50;3.30;;;;;;;8.50;100.00;96261.00;5021316;28;20113;-59
2022/05/09 01:59:06;;;;;;;4.32;4.03;;;;;;;8.55;100.00;96263.31;5024349;28;20044;-59
2022/05/09 02:01:40;;;;;;;4.28;3.67;;;;;;;8.56;100.00;96263.19;5020038;28;20114;-60
2022/05/09 02:04:06;;;;;;;3.88;3.67;;;;;;;8.55;100.00;96261.53;5018298;28;20024;-60
2022/05/09 02:06:32;;;;;;;7.80;3.92;;;;;;;8.55;100.00;96263.31;5017859;28;20018;-60
2022/05/09 02:08:57;;;;;;;5.40;3.50;;;;;;;8.49;100.00;96261.13;5022008;28;20076;-60
2022/05/09 02:11:22;;;;;;;3.40;3.20;;;;;;;8.48;100.00;96264.69;5025943;28;20050;-59
2022/05/09 02:13:48;;;;;;;4.80;3.47;;;;;;;8.51;100.00;96265.34;5018026;28;20033;-60
2022/05/09 02:16:13;;;;;;;3.88;3.50;;;;;;;8.55;100.00;96272.03;5019875;28;20029;-60
2022/05/09 02:18:39;;;;;;;4.07;3.72;;;;;;;8.50;100.00;96265.44;5023030;28;20028;-60
2022/05/09 02:21:05;;;;;;;3.88;3.40;;;;;;;8.46;100.00;96270.03;5026488;28;20021;-60
2022/05/09 02:23:31;;;;;;;3.83;3.63;;;;;;;8.46;100.00;96277.91;5018047;28;20468;-59
2022/05/09 02:25:56;;;;;;;3.75;3.55;;;;;;;8.48;100.00;96281.25;5016011;28;20025;-60
2022/05/09 02:28:22;;;;;;;4.28;3.88;;;;;;;8.48;100.00;96286.50;5022577;28;20033;-60
2022/05/09 02:30:47;;;;;;;3.65;3.45;;;;;;;8.45;100.00;96289.38;5018868;28;20028;-60
2022/05/09 02:33:13;;;;;;;3.92;3.60;;;;;;;8.43;100.00;96280.78;5021482;28;20053;-60
2022/05/09 02:35:40;;;;;;;4.53;3.88;;;;;;;8.42;100.00;96281.72;5020646;28;20029;-60
2022/05/09 02:38:06;;;;;;;6.13;3.30;;;;;;;8.33;100.00;96280.63;5020291;28;20025;-60
2022/05/09 02:40:33;;;;;;;3.88;3.67;;;;;;;8.27;100.00;96279.28;5018111;28;20017;-60
2022/05/09 02:42:59;;;;;;;3.83;3.63;;;;;;;8.29;100.00;96277.41;5020308;28;20096;-60
2022/05/09 02:45:26;;;;;;;5.72;5.22;;;;;;;8.29;100.00;96285.28;5018140;28;20489;-60
2022/05/09 02:47:53;;;;;;;5.80;5.28;;;;;;;8.28;100.00;96282.75;5020680;28;20120;-60
2022/05/09 02:50:21;;;;;;;6.28;5.72;;;;;;;8.28;100.00;96277.50;5020668;28;20803;-60
2022/05/09 02:52:47;;;;;;;4.55;3.63;;;;;;;8.26;100.00;96274.97;5018180;28;20468;-60
2022/05/09 02:55:13;;;;;;;4.60;4.32;;;;;;;8.23;100.00;96280.44;5023093;28;20044;-60
2022/05/09 02:57:39;;;;;;;7.30;3.72;;;;;;;8.24;100.00;96276.88;5021963;28;20029;-60
2022/05/09 03:00:18;;;;;;;4.80;4.30;;;;;;;8.26;100.00;96279.41;5020320;28;20077;-60
2022/05/09 03:04:38;;;;;;;3.97;3.75;;;;;;;8.25;100.00;96283.81;5016995;28;20018;-60
2022/05/09 03:05:30;;;;;;;4.95;4.55;;;;;;;8.19;100.00;96284.25;5016189;28;20484;-60
2022/05/09 03:07:55;;;;;;;4.60;4.28;;;;;;;8.20;100.00;96285.94;5021537;28;20026;-60
2022/05/09 03:10:22;;;;;;;5.45;5.05;;;;;;;8.18;100.00;96285.22;5016729;28;20026;-60
2022/05/09 03:12:47;;;;;;;5.13;4.82;;;;;;;8.22;100.00;96283.22;5021609;28;20035;-60
2022/05/09 03:15:13;;;;;;;5.35;4.43;;;;;;;8.24;100.00;96284.75;5018104;28;20120;-61
2022/05/09 03:17:38;;;;;;;4.80;4.50;;;;;;;8.23;100.00;96285.69;5024233;28;20087;-60
2022/05/09 03:20:04;;;;;;;5.18;4.78;;;;;;;8.21;100.00;96282.34;5015060;28;20034;-59
2022/05/09 03:22:30;;;;;;;6.32;5.53;;;;;;;8.19;100.00;96283.44;5022026;28;20033;-60
2022/05/09 03:24:55;;;;;;;6.65;5.95;;;;;;;8.12;100.00;96277.78;5017106;28;20017;-60
2022/05/09 03:27:20;;;;;;;7.20;5.30;;;;;;;8.07;100.00;96279.91;5020018;28;20473;-60
2022/05/09 03:29:46;;;;;;;6.85;6.20;;;;;;;8.06;100.00;96283.47;5022245;28;20444;-60
2022/05/09 03:32:11;;;;;;;9.20;6.25;;;;;;;8.06;100.00;96286.94;5021064;28;20034;-60
2022/05/09 03:34:36;;;;;;;5.75;5.25;;;;;;;8.07;100.00;96285.16;5021853;28;20401;-60
2022/05/09 03:37:02;;;;;;;5.57;5.05;;;;;;;8.04;100.00;96291.47;5014000;28;20023;-60
2022/05/09 03:39:27;;;;;;;5.72;5.20;;;;;;;8.01;100.00;96284.66;5021177;28;20076;-60
2022/05/09 03:41:52;;;;;;;8.13;5.15;;;;;;;8.00;100.00;96296.09;5023655;28;20034;-60
2022/05/09 03:44:18;;;;;;;4.63;4.32;;;;;;;7.96;100.00;96289.41;5025173;28;20103;-60
2022/05/09 03:46:43;;;;;;;4.35;4.10;;;;;;;7.95;100.00;96286.88;5013894;28;20026;-60
2022/05/09 03:49:10;;;;;;;4.85;4.47;;;;;;;7.95;100.00;96292.97;5023027;28;20025;-60
2022/05/09 03:51:36;;;;;;;5.38;4.80;;;;;;;7.96;100.00;96299.06;5020157;28;20026;-60
2022/05/09 03:54:01;;;;;;;5.10;4.60;;;;;;;7.95;100.00;96292.13;5013955;28;20408;-59
2022/05/09 03:56:26;;;;;;;4.90;4.60;;;;;;;7.90;100.00;96292.47;5015092;28;20053;-60
2022/05/09 03:58:52;;;;;;;5.13;4.63;;;;;;;7.85;100.00;96292.78;5018390;28;20046;-60
2022/05/09 04:01:17;;;;;;;4.03;3.75;;;;;;;7.82;100.00;96297.41;5025455;28;20954;-59
2022/05/09 04:03:43;;;;;;;4.15;3.85;;;;;;;7.78;100.00;96295.97;5020681;28;20574;-59
2022/05/09 04:06:08;;;;;;;3.90;3.70;;;;;;;7.78;100.00;96301.19;5021243;28;20580;-59
2022/05/09 04:08:34;;;;;;;4.55;4.20;;;;;;;7.82;100.00;96302.66;5027964;28;20547;-59
2022/05/09 04:10:59;;;;;;;4.40;4.10;;;;;;;7.80;100.00;96308.03;5018010;28;20497;-59
2022/05/09 04:13:24;;;;;;;6.18;4.20;;;;;;;7.80;100.00;96294.91;5017948;28;20037;-59
2022/05/09 04:18:42;;;;;;;4.22;3.92;;;;;;;7.72;100.00;96308.56;5013544;28;20033;-59
2022/05/09 04:21:10;;;;;;;7.22;4.10;;;;;;;7.71;100.00;96304.25;5025798;28;20404;-59
2022/05/09 04:23:36;;;;;;;4.43;4.13;;;;;;;7.76;100.00;96313.56;5019244;28;20038;-59
2022/05/09 04:26:02;;;;;;;4.88;4.47;;;;;;;7.80;100.00;96310.63;5019874;28;20496;-59
2022/05/09 04:28:28;;;;;;;4.50;4.18;;;;;;;7.85;100.00;96315.56;5013538;28;20036;-60
2022/05/09 04:30:54;;;;;;;5.78;4.22;;;;;;;7.86;100.00;96317.22;5022198;28;20110;-60
2022/05/09 04:33:20;;;;;;;4.88;4.40;;;;;;;7.84;100.00;96316.47;5022060;28;20555;-60
2022/05/09 04:35:46;;;;;;;4.68;4.13;;;;;;;7.80;100.00;96313.25;5025942;28;20040;-60
2022/05/09 04:38:14;;;;;;;5.53;5.13;;;;;;;7.85;100.00;96315.56;5021197;28;20393;-59
2022/05/09 04:40:41;;;;;;;5.85;3.97;;;;;;;7.88;100.00;96323.22;5023753;28;20025;-60
2022/05/09 04:43:06;;;;;;;4.55;4.15;;;;;;;7.90;100.00;96313.44;5021465;28;20656;-60
2022/05/09 04:45:32;;;;;;;7.72;4.28;;;;;;;7.95;100.00;96320.97;5021644;28;20040;-60
2022/05/09 04:47:58;;;;;;;4.88;4.57;;;;;;;7.95;100.00;96313.94;5021537;28;20037;-60
2022/05/09 04:50:26;;;;;;;4.70;4.38;;;;;;;7.98;100.00;96326.00;5017938;28;20021;-60
2022/05/09 04:52:52;;;;;;;5.10;4.70;;;;;;;7.99;100.00;96325.06;5015653;28;20505;-60
2022/05/09 04:55:17;;;;;;;4.95;4.55;;;;;;;7.99;100.00;96325.88;5013873;28;20030;-60
2022/05/09 04:57:44;;;;;;;6.47;5.07;;;;;;;8.02;100.00;96335.31;5021452;28;20033;-60
2022/05/09 05:00:13;;;;;;;4.95;4.55;;;;;;;8.03;100.00;96337.81;5014846;28;20084;-60
2022/05/09 05:02:38;;;;;;;5.00;4.65;;;;;;;8.12;100.00;96335.50;5021279;28;20068;-60
2022/05/09 05:05:05;;;;;;;11.10;9.95;;;;;;;8.20;100.00;96340.19;5021238;28;20072;-60
2022/05/09 05:07:31;;;;;;;7.50;6.90;;;;;;;8.25;100.00;96336.25;5015551;28;20038;-60
2022/05/09 05:09:56;;;;;;;5.90;5.40;;;;;;;8.31;100.00;96346.34;5021635;28;20048;-59
2022/05/09 05:12:22;;;;;;;5.50;5.00;;;;;;;8.34;100.00;96344.44;5026127;28;20025;-59
2022/05/09 05:14:48;;;;;;;5.03;4.60;;;;;;;8.39;100.00;96350.16;5019605;28;20040;-60
2022/05/09 05:17:13;;;;;;;4.60;4.22;;;;;;;8.45;100.00;96354.97;5018360;28;20028;-59
2022/05/09 05:19:44;;;;;;;4.57;4.22;;;;;;;8.50;100.00;96355.50;5024021;28;20056;-60
2022/05/09 05:22:14;;;;;;;4.90;4.60;;;;;;;8.50;100.00;96358.13;5019895;28;20109;-59
2022/05/09 05:24:43;;;;;;;9.00;4.60;;;;;;;8.53;100.00;96357.06;5018516;28;20060;-60
2022/05/09 05:27:09;;;;;;;4.60;4.30;;;;;;;8.54;100.00;96362.22;5016312;28;20018;-60
2022/05/09 05:29:34;;;;;;;5.00;4.70;;;;;;;8.55;100.00;96363.03;5024440;28;20554;-60
2022/05/09 05:32:00;;;;;;;5.32;4.60;;;;;;;8.63;100.00;96367.72;5024243;28;20033;-59
2022/05/09 05:34:25;;;;;;;6.53;4.65;;;;;;;8.71;100.00;96367.97;5021259;28;20395;-60
2022/05/09 05:36:51;;;;;;;4.18;3.97;;;;;;;8.84;100.00;96376.63;5013836;28;20022;-59
2022/05/09 05:39:19;;;;;;;4.13;3.92;;;;;;;8.79;100.00;96384.03;5019747;28;20057;-59
2022/05/09 05:41:45;;;;;;;4.50;4.20;;;;;;;8.81;100.00;96381.25;5014921;28;20030;-59
2022/05/09 05:44:12;;;;;;;5.03;4.60;;;;;;;8.89;100.00;96377.13;5016304;28;20045;-59
2022/05/09 05:46:41;;;;;;;4.38;4.18;;;;;;;9.01;100.00;96382.41;5016248;28;20030;-60
2022/05/09 05:49:09;;;;;;;4.78;4.47;;;;;;;9.13;100.00;96376.22;5018325;28;20054;-59
2022/05/09 05:51:36;;;;;;;4.80;4.30;;;;;;;9.25;100.00;96378.88;5019897;28;20025;-60
2022/05/09 05:54:02;;;;;;;5.80;4.82;;;;;;;9.42;100.00;96382.84;5015670;28;20018;-60
2022/05/09 05:56:27;;;;;;;5.03;4.68;;;;;;;9.56;100.00;96371.25;5018358;28;20021;-60
2022/05/09 05:58:53;;;;;;;5.82;5.05;;;;;;;9.73;100.00;96380.50;5021753;28;20416;-60
2022/05/09 06:01:18;;;;;;;6.63;4.90;;;;;;;9.90;100.00;96376.53;5017587;28;20397;-59
2022/05/09 06:03:44;;;;;;;5.55;5.15;;;;;;;9.97;100.00;96380.34;5022989;28;20028;-60
2022/05/09 06:06:10;;;;;;;5.45;5.05;;;;;;;10.03;100.00;96387.75;5020857;28;20056;-59
2022/05/09 06:08:38;;;;;;;5.72;5.32;;;;;;;10.03;100.00;96382.47;5026247;28;20036;-59
2022/05/09 06:11:07;;;;;;;4.45;4.03;;;;;;;10.11;100.00;96386.31;5020394;28;20025;-59
2022/05/09 06:13:33;;;;;;;11.13;4.55;;;;;;;10.31;100.00;96393.47;5023880;28;20107;-61
2022/05/09 06:15:58;;;;;;;4.53;4.30;;;;;;;10.64;100.00;96384.75;5021227;28;20017;-59
2022/05/09 06:18:24;;;;;;;4.50;4.20;;;;;;;11.11;100.00;96387.91;5018889;28;20026;-60
2022/05/09 06:20:49;;;;;;;6.25;4.53;;;;;;;11.59;100.00;96388.31;5019228;28;20024;-60
2022/05/09 06:23:18;;;;;;;6.10;4.82;;;;;;;11.80;100.00;96388.28;5021227;28;20535;-60
2022/05/09 06:25:46;;;;;;;5.68;5.18;;;;;;;12.02;100.00;96381.19;5022795;28;20113;-60
2022/05/09 06:28:14;;;;;;;6.28;5.70;;;;;;;12.05;100.00;96391.47;5021556;28;20030;-60
2022/05/09 06:30:39;;;;;;;5.72;5.22;;;;;;;12.04;100.00;96387.16;5017399;28;20105;-60
2022/05/09 06:33:06;;;;;;;6.90;5.10;;;;;;;12.01;99.08;96390.88;5027031;28;20116;-60
2022/05/09 06:35:31;;;;;;;4.22;3.92;;;;;;;12.13;98.27;96388.97;5024656;28;20481;-60
2022/05/09 06:38:03;;;;;;;6.20;3.78;;;;;;;12.38;99.73;96389.47;5024640;28;20113;-59
2022/05/09 06:40:30;;;;;;;3.80;3.50;;;;;;;12.64;96.99;96390.75;5035706;28;20392;-60
2022/05/09 06:42:56;;;;;;;4.28;3.83;;;;;;;13.20;95.19;96394.50;5020747;28;20132;-61
2022/05/09 06:45:23;;;;;;;4.10;3.70;;;;;;;13.79;88.29;96391.75;5019297;28;20372;-59
2022/05/09 06:47:53;;;;;;;3.50;3.30;;;;;;;14.25;85.66;96389.16;5021837;28;20101;-60
2022/05/09 06:50:23;;;;;;;3.50;3.30;;;;;;;14.64;82.83;96389.91;5018424;28;20057;-60
2022/05/09 06:52:48;;;;;;;2.63;2.53;;;;;;;15.17;78.90;96390.91;5012085;28;20029;-59
2022/05/09 06:55:14;;;;;;;3.30;3.00;;;;;;;15.09;76.71;96393.50;5021469;28;20033;-60
2022/05/09 06:57:42;;;;;;;2.80;2.67;;;;;;;15.13;77.11;96393.03;5019352;28;20540;-60
2022/05/09 07:00:14;;;;;;;4.65;2.58;;;;;;;15.31;75.71;96390.38;5013107;28;20045;-59
2022/05/09 07:02:40;;;;;;;4.00;2.72;;;;;;;15.87;73.72;96395.34;5023328;28;20025;-60
2022/05/09 07:05:09;;;;;;;2.50;2.40;;;;;;;15.65;74.17;96393.22;5022882;28;20025;-60
2022/05/09 07:07:36;;;;;;;4.68;2.85;;;;;;;16.12;71.46;96384.88;5016828;28;20026;-59
2022/05/09 07:10:02;;;;;;;2.70;2.50;;;;;;;16.47;69.29;96390.16;5011974;28;20030;-60
2022/05/09 07:12:27;;;;;;;2.50;2.40;;;;;;;16.53;69.25;96384.19;5015595;28;20025;-59
2022/05/09 07:14:53;;;;;;;2.55;2.17;;;;;;;16.92;66.74;96385.41;5013693;28;20409;-59
2022/05/09 07:17:18;;;;;;;2.65;2.53;;;;;;;17.20;68.18;96384.28;5016589;28;20036;-60
2022/05/09 07:19:44;;;;;;;2.50;2.40;;;;;;;17.28;68.39;96389.59;5014873;28;20880;-60
2022/05/09 07:22:10;;;;;;;2.45;2.35;;;;;;;17.57;65.21;96394.41;5020724;28;20117;-59
2022/05/09 07:24:35;;;;;;;2.10;2.00;;;;;;;17.97;63.84;96389.13;5013234;28;20025;-59
2022/05/09 07:27:01;;;;;;;3.15;2.40;;;;;;;18.29;61.46;96392.72;5015592;28;20049;-60
2022/05/09 07:29:26;;;;;;;2.38;2.28;;;;;;;18.23;65.51;96393.41;5012020;28;20151;-59
2022/05/09 07:31:52;;;;;;;2.58;2.47;;;;;;;18.41;66.64;96389.66;5015868;28;20029;-60
2022/05/09 07:34:17;;;;;;;2.40;2.30;;;;;;;18.84;65.33;96389.25;5016939;28;20604;-60
2022/05/09 07:36:43;;;;;;;2.15;2.05;;;;;;;18.72;64.25;96384.31;5013974;28;20080;-59
2022/05/09 07:39:08;;;;;;;8.20;2.40;;;;;;;18.98;62.92;96387.66;5026282;28;20491;-59
2022/05/09 07:41:33;;;;;;;2.80;2.40;;;;;;;18.99;63.22;96392.03;5025893;28;20037;-59
2022/05/09 07:43:59;;;;;;;3.45;2.50;;;;;;;19.20;62.31;96382.53;5017405;28;20062;-59
2022/05/09 07:46:25;;;;;;;5.63;2.53;;;;;;;19.47;60.78;96386.47;5014719;28;20059;-59
2022/05/09 07:48:50;;;;;;;2.47;2.28;;;;;;;19.60;61.44;96388.53;5019600;28;20038;-59
2022/05/09 07:51:17;;;;;;;2.60;2.13;;;;;;;19.72;59.87;96381.69;5015063;28;20072;-59
2022/05/09 07:53:42;;;;;;;2.85;2.17;;;;;;;19.61;59.18;96384.84;5018471;28;20033;-59
2022/05/09 07:56:07;;;;;;;2.40;2.22;;;;;;;19.55;58.90;96383.72;5013764;28;20071;-59
2022/05/09 07:58:34;;;;;;;3.78;2.47;;;;;;;19.84;58.15;96378.59;5018972;28;20057;-60
2022/05/09 08:01:00;;;;;;;2.53;2.33;;;;;;;19.64;59.31;96384.47;5024318;28;20029;-60
2022/05/09 08:03:29;;;;;;;2.38;2.22;;;;;;;19.52;60.53;96384.06;5025612;28;20044;-60
2022/05/09 08:05:56;;;;;;;2.08;1.98;;;;;;;19.40;58.25;96383.69;5018360;28;20030;-59
2022/05/09 08:08:22;;;;;;;1.95;1.85;;;;;;;19.55;56.88;96372.19;5019287;28;20025;-60
2022/05/09 08:10:48;;;;;;;1.98;1.88;;;;;;;20.45;55.05;96372.22;5022177;28;20029;-59
2022/05/09 08:13:17;;;;;;;2.45;1.83;;;;;;;20.69;51.91;96383.59;5019446;28;20080;-59
2022/05/09 08:15:46;;;;;;;2.97;1.70;;;;;;;20.16;54.97;96377.41;5013187;28;20041;-60
2022/05/09 08:18:12;;;;;;;2.15;1.88;;;;;;;19.87;54.58;96383.56;5014476;28;20054;-59
2022/05/09 08:20:38;;;;;;;1.88;1.80;;;;;;;20.36;53.79;96373.31;5012623;28;20064;-60
2022/05/09 08:23:10;;;;;;;2.03;1.70;;;;;;;20.36;53.87;96386.69;5017583;28;20124;-60
2022/05/09 08:25:37;;;;;;;1.67;1.58;;;;;;;20.60;51.72;96373.00;5024047;28;20436;-60
2022/05/09 08:28:05;;;;;;;2.22;1.60;;;;;;;20.24;53.02;96379.16;5014930;28;20057;-60
2022/05/09 08:30:33;;;;;;;1.80;1.70;;;;;;;20.12;53.84;96378.81;5018864;28;20064;-60
2022/05/09 08:32:59;;;;;;;1.70;1.60;;;;;;;20.91;51.80;96381.78;5019386;28;20389;-60
2022/05/09 08:35:25;;;;;;;1.80;1.50;;;;;;;21.02;49.41;96381.28;5023551;28;20120;-60
2022/05/09 08:37:51;;;;;;;1.88;1.77;;;;;;;21.38;48.15;96384.06;5014739;28;20034;-60
2022/05/09 08:40:20;;;;;;;1.67;1.58;;;;;;;21.01;47.98;96379.63;5022315;28;20022;-59
2022/05/09 08:42:56;;;;;;;2.10;2.00;;;;;;;20.68;49.95;96374.72;5014355;28;20391;-59
2022/05/09 08:45:27;;;;;;;4.82;2.05;;;;;;;20.88;49.36;96374.94;5025258;28;20087;-59
2022/05/09 08:48:03;;;;;;;1.60;1.50;;;;;;;20.53;48.99;96366.75;5014730;28;20112;-59
2022/05/09 08:50:49;;;;;;;4.78;1.95;;;;;;;20.41;51.18;96362.88;5021132;28;20040;-59
2022/05/09 08:53:23;;;;;;;4.85;1.90;;;;;;;20.59;50.61;96360.63;5019419;28;20125;-60
2022/05/09 08:55:49;;;;;;;1.67;1.60;;;;;;;21.21;49.83;96372.78;5020588;28;20068;-59
2022/05/09 08:58:39;;;;;;;1.67;1.55;;;;;;;21.59;47.60;96367.94;5025606;28;20025;-59
2022/05/09 09:01:17;;;;;;;1.83;1.73;;;;;;;21.14;48.50;96362.88;5020112;28;20113;-60
2022/05/09 09:03:55;;;;;;;1.67;1.58;;;;;;;21.75;46.54;96366.84;5021216;28;20029;-59
2022/05/09 09:06:33;;;;;;;1.40;1.40;;;;;;;21.24;47.43;96372.41;5030748;28;20034;-59
2022/05/09 09:09:38;;;;;;;1.70;1.60;;;;;;;21.29;48.53;96372.66;5015259;28;20448;-59
2022/05/09 09:12:06;;;;;;;1.70;1.60;;;;;;;21.99;45.14;96363.91;5022855;28;20029;-59
2022/05/09 09:14:56;;;;;;;1.58;1.48;;;;;;;22.16;45.01;96373.28;5027733;28;20290;-59
2022/05/09 09:17:43;;;;;;;1.70;1.60;;;;;;;22.21;45.03;96374.53;5018550;28;20021;-59
2022/05/09 09:20:18;;;;;;;3.45;2.00;;;;;;;21.84;45.54;96374.75;5026188;28;20026;-58
2022/05/09 09:22:46;;;;;;;1.63;1.53;;;;;;;21.38;46.52;96379.53;5017734;28;20447;-59
2022/05/09 09:25:42;;;;;;;2.22;1.80;;;;;;;21.20;46.55;96379.16;5016527;28;20295;-59
2022/05/09 09:28:10;;;;;;;4.53;1.85;;;;;;;20.68;47.79;96380.06;5016416;28;20489;-59
2022/05/09 09:30:38;;;;;;;1.67;1.63;;;;;;;20.75;47.50;96374.81;5025111;28;20046;-59
2022/05/09 09:33:07;;;;;;;2.83;1.95;;;;;;;20.90;48.35;96374.78;5017026;28;20033;-59
2022/05/09 09:35:48;;;;;;;1.55;1.55;;;;;;;21.30;46.54;96369.78;5016888;28;20408;-59
2022/05/09 09:38:41;;;;;;;1.75;1.65;;;;;;;21.21;46.61;96376.28;5016965;28;20030;-59
2022/05/09 09:41:31;;;;;;;1.70;1.60;;;;;;;21.50;48.63;96379.00;5016585;28;20026;-59
2022/05/09 09:44:10;;;;;;;3.42;1.60;;;;;;;22.46;45.69;96385.56;5014398;28;20563;-59
2022/05/09 09:47:08;;;;;;;1.65;1.55;;;;;;;22.93;46.41;96380.34;5023095;28;20083;-59
2022/05/09 09:49:42;;;;;;;1.77;1.67;;;;;;;23.89;43.96;96375.66;5000894;28;20567;-59
2022/05/09 09:52:23;;;;;;;2.55;1.67;;;;;;;24.39;43.10;96378.84;5016945;28;20018;-59
2022/05/09 09:54:53;;;;;;;3.83;1.73;;;;;;;24.31;42.02;96372.66;5017859;28;20091;-59
2022/05/09 09:57:37;;;;;;;1.77;1.50;;;;;;;23.74;42.11;96373.19;5023356;28;20508;-60
2022/05/09 10:00:30;;;;;;;1.77;1.67;;;;;;;22.95;43.88;96375.59;5020740;28;20050;-59
2022/05/09 10:03:15;;;;;;;3.17;1.55;;;;;;;22.57;46.57;96371.59;5020063;28;20257;-59
2022/05/09 10:05:43;;;;;;;1.90;1.80;;;;;;;22.80;45.83;96378.47;5015507;28;20104;-58
2022/05/09 10:08:30;;;;;;;2.05;1.60;;;;;;;23.14;46.64;96373.16;5026425;28;20032;-59
2022/05/09 10:11:07;;;;;;;2.33;1.90;;;;;;;24.31;43.75;96359.22;5024135;28;20021;-59
2022/05/09 10:13:44;;;;;;;1.70;1.60;;;;;;;24.69;41.47;96357.56;5025221;28;20036;-58
2022/05/09 10:16:21;;;;;;;2.08;1.65;;;;;;;24.74;40.94;96363.13;5018080;28;20068;-59
2022/05/09 10:18:46;;;;;;;1.67;1.58;;;;;;;24.25;42.23;96354.69;5019681;28;20037;-59
2022/05/09 10:24:47;;;;;;;1.58;1.52;;;;;;;23.61;45.41;96357.09;5023125;28;20030;-58
2022/05/09 10:26:56;;;;;;;1.75;1.65;;;;;;;24.43;41.96;96350.47;5017901;28;20037;-59
2022/05/09 10:29:24;;;;;;;1.50;1.50;;;;;;;24.99;42.07;96345.41;5021753;28;20037;-59
2022/05/09 10:31:53;;;;;;;1.70;1.60;;;;;;;25.58;41.75;96345.19;5019623;28;20038;-58
2022/05/09 10:34:38;;;;;;;1.80;1.70;;;;;;;25.72;40.43;96348.59;5021288;28;20503;-59
2022/05/09 10:37:08;;;;;;;2.10;1.90;;;;;;;24.14;41.73;96348.09;5014768;28;20119;-59
2022/05/09 10:39:39;;;;;;;1.80;1.70;;;;;;;25.28;40.44;96340.44;5029796;28;20029;-59
2022/05/09 10:42:07;;;;;;;2.40;1.80;;;;;;;25.23;40.31;96340.28;5016246;28;20072;-59
2022/05/09 10:45:12;;;;;;;1.80;1.70;;;;;;;25.12;39.96;96333.72;5022001;28;20034;-59
2022/05/09 10:47:56;;;;;;;2.13;2.03;;;;;;;25.34;40.84;96336.88;4975405;28;20041;-58
2022/05/09 10:50:32;;;;;;;1.83;1.73;;;;;;;24.08;41.94;96331.97;5022592;28;20152;-59
2022/05/09 10:53:31;;;;;;;2.55;1.80;;;;;;;23.32;43.60;96329.59;5018786;28;20022;-58
2022/05/09 10:56:12;;;;;;;1.77;1.67;;;;;;;24.76;42.21;96333.34;5021562;28;20472;-57
2022/05/09 10:58:46;;;;;;;2.97;1.63;;;;;;;23.87;44.73;96331.19;5018104;28;20033;-59
2022/05/09 11:01:22;;;;;;;1.70;1.60;;;;;;;23.32;45.44;96325.06;5021580;28;20036;-59
2022/05/09 11:03:48;;;;;;;1.88;1.77;;;;;;;22.82;45.22;96332.66;5020599;28;20095;-59
2022/05/09 11:06:38;;;;;;;1.58;1.50;;;;;;;22.73;46.11;96327.47;5025047;28;20025;-59
2022/05/09 11:09:14;;;;;;;2.17;1.90;;;;;;;22.12;46.91;96320.22;5022039;28;20042;-59
2022/05/09 11:11:45;;;;;;;2.42;2.08;;;;;;;21.98;48.46;96316.66;5020092;28;20104;-59
2022/05/09 11:14:14;;;;;;;2.58;1.80;;;;;;;21.51;50.00;96317.22;5024772;28;20056;-59
2022/05/09 11:17:04;;;;;;;1.80;1.70;;;;;;;21.87;47.32;96323.41;5019656;28;20032;-58
2022/05/09 11:19:47;;;;;;;1.92;1.83;;;;;;;21.77;49.11;96321.09;5021871;28;20504;-59
2022/05/09 11:22:26;;;;;;;2.28;2.08;;;;;;;21.38;49.85;96320.63;5023070;28;20032;-59
2022/05/09 11:26:00;;;;;;;1.88;1.70;;;;;;;20.99;47.24;96321.94;5018642;28;20519;-58
2022/05/09 11:29:04;;;;;;;1.88;1.77;;;;;;;20.97;48.08;96324.00;4942927;29;20067;-58
2022/05/09 11:31:32;;;;;;;2.35;1.88;;;;;;;20.73;49.32;96317.97;4938878;29;20626;-59
2022/05/09 11:34:34;;;;;;;2.03;1.90;;;;;;;20.83;49.27;96318.50;5002867;28;20120;-59
2022/05/09 11:37:23;;;;;;;2.13;1.77;;;;;;;20.40;48.82;96319.28;5015789;28;20504;-59
2022/05/09 11:40:06;;;;;;;3.42;2.78;;;;;;;21.03;49.19;96320.53;5020932;28;20628;-58
2022/05/09 11:45:58;;;;;;;4.00;3.60;;;;;;;23.32;42.26;96310.78;5025098;28;20104;-56
2022/05/09 11:49:00;;;;;;;6.10;2.35;;;;;;;23.26;41.38;96303.56;5021327;28;20025;-58
2022/05/09 11:51:26;;;;;;;2.00;1.83;;;;;;;23.12;42.17;96303.56;5016956;28;20037;-58
2022/05/09 11:54:00;;;;;;;2.90;1.50;;;;;;;23.03;41.71;96302.94;5021005;28;20027;-58
2022/05/09 11:56:29;;;;;;;2.53;2.17;;;;;;;21.75;43.64;96297.16;5020730;28;20025;-58
2022/05/09 11:58:55;;;;;;;2.63;2.05;;;;;;;21.15;44.85;96294.06;5018077;28;20118;-58
2022/05/09 12:01:56;;;;;;;5.05;2.80;;;;;;;20.79;47.91;96286.97;5019921;28;20044;-58